sensor_id;sensor_type;location;lat;lon;timestamp;P1;durP1;ratioP1;P2;durP2;ratioP2
33022;SDS011;19390;51.460;5.710;2023-02-01T00:01:49;18.70;;;6.38;;
33022;SDS011;19390;51.460;5.710;2023-02-01T00:04:15;28.35;;;6.82;;
33022;SDS011;19390;51.460;5.710;2023-02-01T00:06:41;22.27;;;6.32;;
33022;SDS011;19390;51.460;5.710;2023-02-01T00:09:06;19.45;;;6.22;;
33022;SDS011;19390;51.460;5.710;2023-02-01T00:11:32;19.95;;;5.97;;
33022;SDS011;19390;51.460;5.710;2023-02-01T00:13:58;26.27;;;5.57;;
33022;SDS011;19390;51.460;5.710;2023-02-01T00:16:25;31.23;;;6.50;;
33022;SDS011;19390;51.460;5.710;2023-02-01T00:18:56;25.58;;;5.10;;
33022;SDS011;19390;51.460;5.710;2023-02-01T00:21:23;21.65;;;5.53;;
33022;SDS011;19390;51.460;5.710;2023-02-01T00:23:49;26.17;;;6.05;;
33022;SDS011;19390;51.460;5.710;2023-02-01T00:26:16;21.15;;;5.57;;
33022;SDS011;19390;51.460;5.710;2023-02-01T00:28:44;25.20;;;4.93;;
33022;SDS011;19390;51.460;5.710;2023-02-01T00:31:10;19.33;;;4.45;;
33022;SDS011;19390;51.460;5.710;2023-02-01T00:33:36;18.77;;;4.85;;
33022;SDS011;19390;51.460;5.710;2023-02-01T00:36:03;21.77;;;5.22;;
33022;SDS011;19390;51.460;5.710;2023-02-01T00:38:30;24.17;;;4.97;;
33022;SDS011;19390;51.460;5.710;2023-02-01T00:41:04;17.70;;;5.10;;
33022;SDS011;19390;51.460;5.710;2023-02-01T00:43:37;31.92;;;5.40;;
33022;SDS011;19390;51.460;5.710;2023-02-01T00:46:03;22.55;;;4.97;;
33022;SDS011;19390;51.460;5.710;2023-02-01T00:48:29;23.48;;;5.22;;
33022;SDS011;19390;51.460;5.710;2023-02-01T00:50:58;21.42;;;4.25;;
33022;SDS011;19390;51.460;5.710;2023-02-01T00:53:28;24.55;;;5.05;;
33022;SDS011;19390;51.460;5.710;2023-02-01T00:55:54;19.30;;;4.43;;
33022;SDS011;19390;51.460;5.710;2023-02-01T00:58:19;23.63;;;5.22;;
33022;SDS011;19390;51.460;5.710;2023-02-01T01:00:45;23.52;;;5.15;;
33022;SDS011;19390;51.460;5.710;2023-02-01T01:03:11;24.48;;;4.95;;
33022;SDS011;19390;51.460;5.710;2023-02-01T01:05:46;18.98;;;3.90;;
33022;SDS011;19390;51.460;5.710;2023-02-01T01:08:14;21.67;;;4.55;;
33022;SDS011;19390;51.460;5.710;2023-02-01T01:10:40;24.60;;;4.38;;
33022;SDS011;19390;51.460;5.710;2023-02-01T01:13:06;23.85;;;4.18;;
33022;SDS011;19390;51.460;5.710;2023-02-01T01:15:39;16.67;;;3.85;;
33022;SDS011;19390;51.460;5.710;2023-02-01T01:18:05;19.93;;;3.53;;
33022;SDS011;19390;51.460;5.710;2023-02-01T01:20:33;22.63;;;3.72;;
33022;SDS011;19390;51.460;5.710;2023-02-01T01:23:00;23.40;;;3.72;;
33022;SDS011;19390;51.460;5.710;2023-02-01T01:25:26;25.27;;;4.63;;
33022;SDS011;19390;51.460;5.710;2023-02-01T01:27:52;30.60;;;5.18;;
33022;SDS011;19390;51.460;5.710;2023-02-01T01:30:17;21.52;;;4.63;;
33022;SDS011;19390;51.460;5.710;2023-02-01T01:32:43;24.25;;;4.38;;
33022;SDS011;19390;51.460;5.710;2023-02-01T01:35:09;22.30;;;5.20;;
33022;SDS011;19390;51.460;5.710;2023-02-01T01:37:35;28.33;;;4.90;;
33022;SDS011;19390;51.460;5.710;2023-02-01T01:40:01;22.92;;;4.60;;
33022;SDS011;19390;51.460;5.710;2023-02-01T01:42:30;24.65;;;4.53;;
33022;SDS011;19390;51.460;5.710;2023-02-01T01:45:05;23.63;;;4.38;;
33022;SDS011;19390;51.460;5.710;2023-02-01T01:47:34;24.90;;;5.22;;
33022;SDS011;19390;51.460;5.710;2023-02-01T01:50:07;22.88;;;4.70;;
33022;SDS011;19390;51.460;5.710;2023-02-01T01:52:37;24.65;;;4.65;;
33022;SDS011;19390;51.460;5.710;2023-02-01T01:55:06;28.05;;;4.43;;
33022;SDS011;19390;51.460;5.710;2023-02-01T01:57:33;22.90;;;3.83;;
33022;SDS011;19390;51.460;5.710;2023-02-01T02:02:28;25.55;;;4.28;;
33022;SDS011;19390;51.460;5.710;2023-02-01T02:04:54;22.20;;;4.13;;
33022;SDS011;19390;51.460;5.710;2023-02-01T02:07:21;24.15;;;4.72;;
33022;SDS011;19390;51.460;5.710;2023-02-01T02:09:50;16.90;;;4.38;;
33022;SDS011;19390;51.460;5.710;2023-02-01T02:12:17;21.90;;;4.35;;
33022;SDS011;19390;51.460;5.710;2023-02-01T02:14:42;23.95;;;4.90;;
33022;SDS011;19390;51.460;5.710;2023-02-01T02:22:42;24.60;;;4.30;;
33022;SDS011;19390;51.460;5.710;2023-02-01T02:34:03;26.75;;;5.15;;
33022;SDS011;19390;51.460;5.710;2023-02-01T02:36:49;34.33;;;5.53;;
33022;SDS011;19390;51.460;5.710;2023-02-01T02:45:20;30.60;;;5.45;;
33022;SDS011;19390;51.460;5.710;2023-02-01T02:48:17;22.08;;;5.30;;
33022;SDS011;19390;51.460;5.710;2023-02-01T02:51:06;23.17;;;5.88;;
33022;SDS011;19390;51.460;5.710;2023-02-01T02:54:05;26.92;;;5.95;;
33022;SDS011;19390;51.460;5.710;2023-02-01T02:56:56;27.98;;;5.90;;
33022;SDS011;19390;51.460;5.710;2023-02-01T02:59:43;30.95;;;5.50;;
33022;SDS011;19390;51.460;5.710;2023-02-01T03:02:29;28.95;;;5.93;;
33022;SDS011;19390;51.460;5.710;2023-02-01T03:05:14;21.52;;;4.90;;
33022;SDS011;19390;51.460;5.710;2023-02-01T03:10:55;19.05;;;3.95;;
33022;SDS011;19390;51.460;5.710;2023-02-01T03:13:03;24.77;;;4.38;;
33022;SDS011;19390;51.460;5.710;2023-02-01T03:15:38;26.85;;;4.80;;
33022;SDS011;19390;51.460;5.710;2023-02-01T03:18:29;25.67;;;4.72;;
33022;SDS011;19390;51.460;5.710;2023-02-01T03:21:13;26.52;;;5.38;;
33022;SDS011;19390;51.460;5.710;2023-02-01T03:23:44;29.50;;;4.50;;
33022;SDS011;19390;51.460;5.710;2023-02-01T03:26:13;24.45;;;4.72;;
33022;SDS011;19390;51.460;5.710;2023-02-01T03:28:43;29.00;;;5.55;;
33022;SDS011;19390;51.460;5.710;2023-02-01T03:31:14;23.65;;;5.32;;
33022;SDS011;19390;51.460;5.710;2023-02-01T03:33:41;28.30;;;5.15;;
33022;SDS011;19390;51.460;5.710;2023-02-01T03:36:15;26.08;;;4.68;;
33022;SDS011;19390;51.460;5.710;2023-02-01T03:42:05;27.15;;;5.25;;
33022;SDS011;19390;51.460;5.710;2023-02-01T03:44:53;29.73;;;5.18;;
33022;SDS011;19390;51.460;5.710;2023-02-01T03:47:27;25.33;;;5.10;;
33022;SDS011;19390;51.460;5.710;2023-02-01T03:49:57;25.40;;;5.10;;
33022;SDS011;19390;51.460;5.710;2023-02-01T03:52:28;31.30;;;5.00;;
33022;SDS011;19390;51.460;5.710;2023-02-01T03:55:01;24.13;;;4.80;;
33022;SDS011;19390;51.460;5.710;2023-02-01T03:57:29;28.40;;;5.10;;
33022;SDS011;19390;51.460;5.710;2023-02-01T04:00:18;25.13;;;5.03;;
33022;SDS011;19390;51.460;5.710;2023-02-01T04:02:46;26.48;;;4.93;;
33022;SDS011;19390;51.460;5.710;2023-02-01T04:05:12;29.55;;;4.35;;
33022;SDS011;19390;51.460;5.710;2023-02-01T04:07:38;23.65;;;4.63;;
33022;SDS011;19390;51.460;5.710;2023-02-01T04:10:04;30.02;;;4.90;;
33022;SDS011;19390;51.460;5.710;2023-02-01T04:12:30;32.05;;;5.47;;
33022;SDS011;19390;51.460;5.710;2023-02-01T04:14:55;28.35;;;4.60;;
33022;SDS011;19390;51.460;5.710;2023-02-01T04:17:21;26.35;;;5.15;;
33022;SDS011;19390;51.460;5.710;2023-02-01T04:19:46;30.67;;;5.38;;
33022;SDS011;19390;51.460;5.710;2023-02-01T04:22:12;32.88;;;4.90;;
33022;SDS011;19390;51.460;5.710;2023-02-01T04:24:38;32.33;;;4.32;;
33022;SDS011;19390;51.460;5.710;2023-02-01T04:27:03;24.38;;;4.57;;
33022;SDS011;19390;51.460;5.710;2023-02-01T04:29:31;23.02;;;5.30;;
33022;SDS011;19390;51.460;5.710;2023-02-01T04:31:56;31.17;;;4.40;;
33022;SDS011;19390;51.460;5.710;2023-02-01T04:34:22;24.55;;;4.60;;
33022;SDS011;19390;51.460;5.710;2023-02-01T04:36:49;26.13;;;4.65;;
33022;SDS011;19390;51.460;5.710;2023-02-01T04:39:15;23.90;;;5.68;;
33022;SDS011;19390;51.460;5.710;2023-02-01T04:41:41;28.88;;;5.95;;
33022;SDS011;19390;51.460;5.710;2023-02-01T04:44:08;30.67;;;6.50;;
33022;SDS011;19390;51.460;5.710;2023-02-01T04:46:39;24.92;;;5.00;;
33022;SDS011;19390;51.460;5.710;2023-02-01T04:49:04;27.52;;;5.03;;
33022;SDS011;19390;51.460;5.710;2023-02-01T04:51:30;35.35;;;6.47;;
33022;SDS011;19390;51.460;5.710;2023-02-01T04:53:56;25.52;;;4.82;;
33022;SDS011;19390;51.460;5.710;2023-02-01T04:56:21;29.08;;;5.65;;
33022;SDS011;19390;51.460;5.710;2023-02-01T04:58:47;26.77;;;4.30;;
33022;SDS011;19390;51.460;5.710;2023-02-01T05:01:13;28.42;;;4.20;;
33022;SDS011;19390;51.460;5.710;2023-02-01T05:03:38;20.48;;;3.78;;
33022;SDS011;19390;51.460;5.710;2023-02-01T05:06:04;23.02;;;5.07;;
33022;SDS011;19390;51.460;5.710;2023-02-01T05:08:30;31.67;;;4.10;;
33022;SDS011;19390;51.460;5.710;2023-02-01T05:10:56;26.65;;;4.25;;
33022;SDS011;19390;51.460;5.710;2023-02-01T05:13:23;26.80;;;4.13;;
33022;SDS011;19390;51.460;5.710;2023-02-01T05:16:08;26.67;;;4.32;;
33022;SDS011;19390;51.460;5.710;2023-02-01T05:18:33;25.60;;;5.28;;
33022;SDS011;19390;51.460;5.710;2023-02-01T05:20:59;27.42;;;4.78;;
33022;SDS011;19390;51.460;5.710;2023-02-01T05:23:25;18.92;;;4.38;;
33022;SDS011;19390;51.460;5.710;2023-02-01T05:25:51;29.00;;;4.72;;
33022;SDS011;19390;51.460;5.710;2023-02-01T05:28:17;28.38;;;5.55;;
33022;SDS011;19390;51.460;5.710;2023-02-01T05:30:42;32.00;;;5.43;;
33022;SDS011;19390;51.460;5.710;2023-02-01T05:33:08;31.30;;;5.82;;
33022;SDS011;19390;51.460;5.710;2023-02-01T05:35:33;33.90;;;5.22;;
33022;SDS011;19390;51.460;5.710;2023-02-01T05:37:59;25.38;;;5.18;;
33022;SDS011;19390;51.460;5.710;2023-02-01T05:40:24;21.70;;;4.90;;
33022;SDS011;19390;51.460;5.710;2023-02-01T05:42:50;33.05;;;4.72;;
33022;SDS011;19390;51.460;5.710;2023-02-01T05:45:16;33.05;;;5.53;;
33022;SDS011;19390;51.460;5.710;2023-02-01T05:47:41;34.88;;;4.43;;
33022;SDS011;19390;51.460;5.710;2023-02-01T05:50:07;24.33;;;5.35;;
33022;SDS011;19390;51.460;5.710;2023-02-01T05:52:33;30.02;;;5.65;;
33022;SDS011;19390;51.460;5.710;2023-02-01T05:54:59;26.38;;;4.38;;
33022;SDS011;19390;51.460;5.710;2023-02-01T05:57:24;21.67;;;4.82;;
33022;SDS011;19390;51.460;5.710;2023-02-01T05:59:50;30.88;;;4.85;;
33022;SDS011;19390;51.460;5.710;2023-02-01T06:02:15;29.02;;;5.22;;
33022;SDS011;19390;51.460;5.710;2023-02-01T06:04:41;32.88;;;5.43;;
33022;SDS011;19390;51.460;5.710;2023-02-01T06:07:08;29.08;;;5.78;;
33022;SDS011;19390;51.460;5.710;2023-02-01T06:09:35;35.03;;;6.68;;
33022;SDS011;19390;51.460;5.710;2023-02-01T06:12:02;30.55;;;5.63;;
33022;SDS011;19390;51.460;5.710;2023-02-01T06:14:28;34.95;;;6.43;;
33022;SDS011;19390;51.460;5.710;2023-02-01T06:16:54;25.20;;;4.78;;
33022;SDS011;19390;51.460;5.710;2023-02-01T06:19:20;28.70;;;5.78;;
33022;SDS011;19390;51.460;5.710;2023-02-01T06:21:46;34.90;;;6.22;;
33022;SDS011;19390;51.460;5.710;2023-02-01T06:24:12;34.75;;;5.13;;
33022;SDS011;19390;51.460;5.710;2023-02-01T06:26:38;27.63;;;5.47;;
33022;SDS011;19390;51.460;5.710;2023-02-01T06:29:04;34.95;;;6.50;;
33022;SDS011;19390;51.460;5.710;2023-02-01T06:31:31;30.10;;;4.57;;
33022;SDS011;19390;51.460;5.710;2023-02-01T06:33:57;32.50;;;6.43;;
33022;SDS011;19390;51.460;5.710;2023-02-01T06:36:23;30.55;;;6.05;;
33022;SDS011;19390;51.460;5.710;2023-02-01T06:38:48;25.23;;;5.70;;
33022;SDS011;19390;51.460;5.710;2023-02-01T06:41:14;36.35;;;5.78;;
33022;SDS011;19390;51.460;5.710;2023-02-01T06:43:40;32.33;;;7.00;;
33022;SDS011;19390;51.460;5.710;2023-02-01T06:46:07;25.77;;;6.07;;
33022;SDS011;19390;51.460;5.710;2023-02-01T06:48:34;30.10;;;5.90;;
33022;SDS011;19390;51.460;5.710;2023-02-01T06:50:59;22.83;;;5.57;;
33022;SDS011;19390;51.460;5.710;2023-02-01T06:53:25;27.85;;;5.38;;
33022;SDS011;19390;51.460;5.710;2023-02-01T06:55:55;28.02;;;6.03;;
33022;SDS011;19390;51.460;5.710;2023-02-01T06:58:22;37.47;;;7.00;;
33022;SDS011;19390;51.460;5.710;2023-02-01T07:00:48;33.65;;;6.32;;
33022;SDS011;19390;51.460;5.710;2023-02-01T07:03:14;30.50;;;6.70;;
33022;SDS011;19390;51.460;5.710;2023-02-01T07:05:39;33.70;;;6.00;;
33022;SDS011;19390;51.460;5.710;2023-02-01T07:08:05;38.75;;;7.30;;
33022;SDS011;19390;51.460;5.710;2023-02-01T07:10:30;42.47;;;7.35;;
33022;SDS011;19390;51.460;5.710;2023-02-01T07:12:59;33.17;;;5.30;;
33022;SDS011;19390;51.460;5.710;2023-02-01T07:15:25;26.67;;;5.40;;
33022;SDS011;19390;51.460;5.710;2023-02-01T07:17:50;40.35;;;7.32;;
33022;SDS011;19390;51.460;5.710;2023-02-01T07:20:18;26.02;;;6.22;;
33022;SDS011;19390;51.460;5.710;2023-02-01T07:22:44;35.95;;;6.47;;
33022;SDS011;19390;51.460;5.710;2023-02-01T07:25:09;36.83;;;7.55;;
33022;SDS011;19390;51.460;5.710;2023-02-01T07:27:35;28.85;;;5.93;;
33022;SDS011;19390;51.460;5.710;2023-02-01T07:30:02;35.38;;;6.22;;
33022;SDS011;19390;51.460;5.710;2023-02-01T07:32:31;29.50;;;6.28;;
33022;SDS011;19390;51.460;5.710;2023-02-01T07:34:57;35.85;;;6.43;;
33022;SDS011;19390;51.460;5.710;2023-02-01T07:37:23;30.02;;;6.00;;
33022;SDS011;19390;51.460;5.710;2023-02-01T07:39:50;32.40;;;5.72;;
33022;SDS011;19390;51.460;5.710;2023-02-01T07:42:16;31.40;;;5.65;;
33022;SDS011;19390;51.460;5.710;2023-02-01T07:44:42;34.20;;;6.80;;
33022;SDS011;19390;51.460;5.710;2023-02-01T07:47:07;28.50;;;6.03;;
33022;SDS011;19390;51.460;5.710;2023-02-01T07:49:33;35.05;;;7.03;;
33022;SDS011;19390;51.460;5.710;2023-02-01T07:51:58;34.13;;;5.90;;
33022;SDS011;19390;51.460;5.710;2023-02-01T07:54:24;29.25;;;5.97;;
33022;SDS011;19390;51.460;5.710;2023-02-01T07:56:49;39.85;;;7.13;;
33022;SDS011;19390;51.460;5.710;2023-02-01T07:59:15;34.80;;;5.32;;
33022;SDS011;19390;51.460;5.710;2023-02-01T08:01:41;30.02;;;6.07;;
33022;SDS011;19390;51.460;5.710;2023-02-01T08:04:07;32.22;;;5.25;;
33022;SDS011;19390;51.460;5.710;2023-02-01T08:06:36;28.95;;;5.75;;
33022;SDS011;19390;51.460;5.710;2023-02-01T08:09:02;28.73;;;6.03;;
33022;SDS011;19390;51.460;5.710;2023-02-01T08:11:29;32.38;;;6.68;;
33022;SDS011;19390;51.460;5.710;2023-02-01T08:13:55;35.42;;;5.85;;
33022;SDS011;19390;51.460;5.710;2023-02-01T08:16:21;30.75;;;6.00;;
33022;SDS011;19390;51.460;5.710;2023-02-01T08:18:47;34.25;;;5.47;;
33022;SDS011;19390;51.460;5.710;2023-02-01T08:21:14;25.00;;;5.47;;
33022;SDS011;19390;51.460;5.710;2023-02-01T08:23:42;30.08;;;5.75;;
33022;SDS011;19390;51.460;5.710;2023-02-01T08:26:10;31.92;;;5.43;;
33022;SDS011;19390;51.460;5.710;2023-02-01T08:28:44;27.67;;;4.88;;
33022;SDS011;19390;51.460;5.710;2023-02-01T08:31:20;25.58;;;5.63;;
33022;SDS011;19390;51.460;5.710;2023-02-01T08:33:52;22.73;;;5.13;;
33022;SDS011;19390;51.460;5.710;2023-02-01T08:36:20;20.13;;;4.90;;
33022;SDS011;19390;51.460;5.710;2023-02-01T08:38:46;37.60;;;6.00;;
33022;SDS011;19390;51.460;5.710;2023-02-01T08:41:13;27.83;;;4.97;;
33022;SDS011;19390;51.460;5.710;2023-02-01T08:43:44;32.50;;;5.80;;
33022;SDS011;19390;51.460;5.710;2023-02-01T08:46:10;28.88;;;5.78;;
33022;SDS011;19390;51.460;5.710;2023-02-01T08:48:36;28.27;;;6.03;;
33022;SDS011;19390;51.460;5.710;2023-02-01T08:51:03;30.02;;;5.68;;
33022;SDS011;19390;51.460;5.710;2023-02-01T08:53:31;29.13;;;5.25;;
33022;SDS011;19390;51.460;5.710;2023-02-01T08:55:57;28.05;;;5.05;;
33022;SDS011;19390;51.460;5.710;2023-02-01T08:58:23;26.13;;;6.03;;
33022;SDS011;19390;51.460;5.710;2023-02-01T09:00:48;31.67;;;5.60;;
33022;SDS011;19390;51.460;5.710;2023-02-01T09:03:14;33.97;;;5.72;;
33022;SDS011;19390;51.460;5.710;2023-02-01T09:05:41;21.52;;;5.63;;
33022;SDS011;19390;51.460;5.710;2023-02-01T09:08:06;34.15;;;5.57;;
33022;SDS011;19390;51.460;5.710;2023-02-01T09:10:33;28.02;;;5.75;;
33022;SDS011;19390;51.460;5.710;2023-02-01T09:12:59;27.05;;;6.05;;
33022;SDS011;19390;51.460;5.710;2023-02-01T09:15:25;25.83;;;5.22;;
33022;SDS011;19390;51.460;5.710;2023-02-01T09:17:50;22.38;;;4.85;;
33022;SDS011;19390;51.460;5.710;2023-02-01T09:20:16;31.83;;;5.88;;
33022;SDS011;19390;51.460;5.710;2023-02-01T09:22:43;23.15;;;6.72;;
33022;SDS011;19390;51.460;5.710;2023-02-01T09:25:09;28.33;;;5.25;;
33022;SDS011;19390;51.460;5.710;2023-02-01T09:27:34;29.25;;;6.50;;
33022;SDS011;19390;51.460;5.710;2023-02-01T09:30:00;19.85;;;4.75;;
33022;SDS011;19390;51.460;5.710;2023-02-01T09:32:26;33.33;;;5.55;;
33022;SDS011;19390;51.460;5.710;2023-02-01T09:34:52;31.70;;;5.97;;
33022;SDS011;19390;51.460;5.710;2023-02-01T09:37:18;24.20;;;4.88;;
33022;SDS011;19390;51.460;5.710;2023-02-01T09:39:44;28.50;;;5.20;;
33022;SDS011;19390;51.460;5.710;2023-02-01T09:42:20;26.67;;;6.03;;
33022;SDS011;19390;51.460;5.710;2023-02-01T09:47:48;24.92;;;4.32;;
33022;SDS011;19390;51.460;5.710;2023-02-01T09:50:36;27.33;;;4.40;;
33022;SDS011;19390;51.460;5.710;2023-02-01T09:55:41;24.40;;;4.97;;
33022;SDS011;19390;51.460;5.710;2023-02-01T10:00:39;27.05;;;4.25;;
33022;SDS011;19390;51.460;5.710;2023-02-01T10:03:24;23.35;;;5.03;;
33022;SDS011;19390;51.460;5.710;2023-02-01T10:23:25;23.67;;;4.65;;
33022;SDS011;19390;51.460;5.710;2023-02-01T10:26:21;20.20;;;4.35;;
33022;SDS011;19390;51.460;5.710;2023-02-01T10:28:50;26.58;;;4.18;;
33022;SDS011;19390;51.460;5.710;2023-02-01T10:31:18;15.80;;;3.20;;
33022;SDS011;19390;51.460;5.710;2023-02-01T10:33:47;26.23;;;5.30;;
33022;SDS011;19390;51.460;5.710;2023-02-01T10:39:21;21.88;;;3.70;;
33022;SDS011;19390;51.460;5.710;2023-02-01T10:41:48;21.30;;;3.47;;
33022;SDS011;19390;51.460;5.710;2023-02-01T10:44:15;24.88;;;4.25;;
33022;SDS011;19390;51.460;5.710;2023-02-01T10:46:47;22.90;;;3.50;;
33022;SDS011;19390;51.460;5.710;2023-02-01T10:49:15;26.27;;;4.07;;
33022;SDS011;19390;51.460;5.710;2023-02-01T10:51:51;23.95;;;3.80;;
33022;SDS011;19390;51.460;5.710;2023-02-01T10:54:35;25.23;;;5.53;;
33022;SDS011;19390;51.460;5.710;2023-02-01T10:57:09;28.60;;;3.47;;
33022;SDS011;19390;51.460;5.710;2023-02-01T10:59:44;28.23;;;5.35;;
33022;SDS011;19390;51.460;5.710;2023-02-01T11:02:19;23.88;;;3.55;;
33022;SDS011;19390;51.460;5.710;2023-02-01T11:04:58;21.48;;;3.35;;
33022;SDS011;19390;51.460;5.710;2023-02-01T11:07:30;19.75;;;3.70;;
33022;SDS011;19390;51.460;5.710;2023-02-01T11:09:57;19.35;;;3.83;;
33022;SDS011;19390;51.460;5.710;2023-02-01T11:12:28;23.52;;;3.90;;
33022;SDS011;19390;51.460;5.710;2023-02-01T11:15:18;25.77;;;4.45;;
33022;SDS011;19390;51.460;5.710;2023-02-01T11:17:45;23.58;;;3.78;;
33022;SDS011;19390;51.460;5.710;2023-02-01T11:20:13;16.75;;;2.97;;
33022;SDS011;19390;51.460;5.710;2023-02-01T11:22:45;23.70;;;3.97;;
33022;SDS011;19390;51.460;5.710;2023-02-01T11:25:13;18.02;;;3.15;;
33022;SDS011;19390;51.460;5.710;2023-02-01T11:27:40;21.13;;;4.00;;
33022;SDS011;19390;51.460;5.710;2023-02-01T11:30:07;22.02;;;3.35;;
33022;SDS011;19390;51.460;5.710;2023-02-01T11:32:39;28.42;;;3.75;;
33022;SDS011;19390;51.460;5.710;2023-02-01T11:35:05;25.08;;;3.90;;
33022;SDS011;19390;51.460;5.710;2023-02-01T11:37:33;21.80;;;3.63;;
33022;SDS011;19390;51.460;5.710;2023-02-01T11:45:55;18.58;;;3.67;;
33022;SDS011;19390;51.460;5.710;2023-02-01T11:48:23;18.92;;;3.53;;
33022;SDS011;19390;51.460;5.710;2023-02-01T11:53:57;29.35;;;4.18;;
33022;SDS011;19390;51.460;5.710;2023-02-01T11:56:31;19.98;;;3.38;;
33022;SDS011;19390;51.460;5.710;2023-02-01T12:02:30;19.55;;;3.58;;
33022;SDS011;19390;51.460;5.710;2023-02-01T12:05:10;21.73;;;3.25;;
33022;SDS011;19390;51.460;5.710;2023-02-01T12:15:44;18.77;;;3.58;;
33022;SDS011;19390;51.460;5.710;2023-02-01T12:18:25;23.92;;;3.65;;
33022;SDS011;19390;51.460;5.710;2023-02-01T12:30:20;21.00;;;3.63;;
33022;SDS011;19390;51.460;5.710;2023-02-01T12:40:56;22.92;;;3.55;;
33022;SDS011;19390;51.460;5.710;2023-02-01T12:46:22;23.30;;;4.05;;
33022;SDS011;19390;51.460;5.710;2023-02-01T12:49:00;21.85;;;3.10;;
33022;SDS011;19390;51.460;5.710;2023-02-01T12:51:40;24.75;;;3.33;;
33022;SDS011;19390;51.460;5.710;2023-02-01T12:54:15;18.45;;;3.00;;
33022;SDS011;19390;51.460;5.710;2023-02-01T12:57:12;26.55;;;3.85;;
33022;SDS011;19390;51.460;5.710;2023-02-01T12:59:49;26.60;;;3.63;;
33022;SDS011;19390;51.460;5.710;2023-02-01T13:07:35;23.88;;;3.58;;
33022;SDS011;19390;51.460;5.710;2023-02-01T13:12:35;24.40;;;3.47;;
33022;SDS011;19390;51.460;5.710;2023-02-01T13:15:05;20.65;;;3.00;;
33022;SDS011;19390;51.460;5.710;2023-02-01T13:17:41;19.95;;;3.58;;
33022;SDS011;19390;51.460;5.710;2023-02-01T13:20:16;19.15;;;2.67;;
33022;SDS011;19390;51.460;5.710;2023-02-01T13:22:54;18.35;;;3.85;;
33022;SDS011;19390;51.460;5.710;2023-02-01T13:25:32;19.40;;;3.28;;
33022;SDS011;19390;51.460;5.710;2023-02-01T13:28:10;18.27;;;3.13;;
33022;SDS011;19390;51.460;5.710;2023-02-01T13:31:00;20.85;;;4.45;;
33022;SDS011;19390;51.460;5.710;2023-02-01T13:33:37;14.82;;;3.88;;
33022;SDS011;19390;51.460;5.710;2023-02-01T13:38:49;21.50;;;4.10;;
33022;SDS011;19390;51.460;5.710;2023-02-01T13:42:01;22.90;;;3.63;;
33022;SDS011;19390;51.460;5.710;2023-02-01T13:44:31;23.13;;;4.00;;
33022;SDS011;19390;51.460;5.710;2023-02-01T13:47:02;18.13;;;3.83;;
33022;SDS011;19390;51.460;5.710;2023-02-01T13:49:37;26.63;;;5.10;;
33022;SDS011;19390;51.460;5.710;2023-02-01T13:52:05;18.00;;;3.50;;
33022;SDS011;19390;51.460;5.710;2023-02-01T13:54:47;20.10;;;3.85;;
33022;SDS011;19390;51.460;5.710;2023-02-01T14:00:07;31.52;;;4.43;;
33022;SDS011;19390;51.460;5.710;2023-02-01T14:05:10;22.98;;;3.33;;
33022;SDS011;19390;51.460;5.710;2023-02-01T14:08:01;19.65;;;3.47;;
33022;SDS011;19390;51.460;5.710;2023-02-01T14:13:25;25.08;;;4.20;;
33022;SDS011;19390;51.460;5.710;2023-02-01T14:18:56;24.30;;;3.22;;
33022;SDS011;19390;51.460;5.710;2023-02-01T14:36:49;19.60;;;3.67;;
33022;SDS011;19390;51.460;5.710;2023-02-01T14:39:22;19.30;;;3.55;;
33022;SDS011;19390;51.460;5.710;2023-02-01T14:41:57;25.00;;;3.53;;
33022;SDS011;19390;51.460;5.710;2023-02-01T14:44:28;23.60;;;4.30;;
33022;SDS011;19390;51.460;5.710;2023-02-01T14:50:10;23.08;;;3.75;;
33022;SDS011;19390;51.460;5.710;2023-02-01T14:52:50;21.02;;;3.70;;
33022;SDS011;19390;51.460;5.710;2023-02-01T15:00:52;23.05;;;4.00;;
33022;SDS011;19390;51.460;5.710;2023-02-01T15:08:52;21.15;;;3.42;;
33022;SDS011;19390;51.460;5.710;2023-02-01T15:14:46;19.55;;;3.35;;
33022;SDS011;19390;51.460;5.710;2023-02-01T15:17:28;21.40;;;3.85;;
33022;SDS011;19390;51.460;5.710;2023-02-01T15:20:15;19.60;;;3.05;;
33022;SDS011;19390;51.460;5.710;2023-02-01T15:22:41;16.60;;;3.77;;
33022;SDS011;19390;51.460;5.710;2023-02-01T15:25:18;15.98;;;3.25;;
33022;SDS011;19390;51.460;5.710;2023-02-01T15:27:45;16.85;;;3.50;;
33022;SDS011;19390;51.460;5.710;2023-02-01T15:30:18;21.83;;;3.60;;
33022;SDS011;19390;51.460;5.710;2023-02-01T15:32:46;22.70;;;2.85;;
33022;SDS011;19390;51.460;5.710;2023-02-01T15:41:23;21.50;;;3.88;;
33022;SDS011;19390;51.460;5.710;2023-02-01T15:46:25;18.90;;;3.25;;
33022;SDS011;19390;51.460;5.710;2023-02-01T15:48:57;31.85;;;4.45;;
33022;SDS011;19390;51.460;5.710;2023-02-01T15:51:23;17.80;;;3.80;;
33022;SDS011;19390;51.460;5.710;2023-02-01T15:53:56;15.23;;;3.90;;
33022;SDS011;19390;51.460;5.710;2023-02-01T15:56:23;20.38;;;4.10;;
33022;SDS011;19390;51.460;5.710;2023-02-01T15:58:53;21.92;;;3.88;;
33022;SDS011;19390;51.460;5.710;2023-02-01T16:01:24;18.42;;;3.25;;
33022;SDS011;19390;51.460;5.710;2023-02-01T16:06:55;23.77;;;3.90;;
33022;SDS011;19390;51.460;5.710;2023-02-01T16:09:22;19.23;;;3.58;;
33022;SDS011;19390;51.460;5.710;2023-02-01T16:11:59;25.63;;;3.70;;
33022;SDS011;19390;51.460;5.710;2023-02-01T16:14:26;21.20;;;3.58;;
33022;SDS011;19390;51.460;5.710;2023-02-01T16:16:53;23.08;;;3.88;;
33022;SDS011;19390;51.460;5.710;2023-02-01T16:19:22;21.92;;;4.22;;
33022;SDS011;19390;51.460;5.710;2023-02-01T16:21:52;23.58;;;4.07;;
33022;SDS011;19390;51.460;5.710;2023-02-01T16:24:18;32.58;;;5.97;;
33022;SDS011;19390;51.460;5.710;2023-02-01T16:26:44;27.05;;;4.40;;
33022;SDS011;19390;51.460;5.710;2023-02-01T16:29:09;25.73;;;4.63;;
33022;SDS011;19390;51.460;5.710;2023-02-01T16:31:36;21.80;;;3.97;;
33022;SDS011;19390;51.460;5.710;2023-02-01T16:34:03;29.05;;;4.90;;
33022;SDS011;19390;51.460;5.710;2023-02-01T16:36:30;27.17;;;5.80;;
33022;SDS011;19390;51.460;5.710;2023-02-01T16:38:56;20.33;;;4.35;;
33022;SDS011;19390;51.460;5.710;2023-02-01T16:41:23;31.98;;;5.72;;
33022;SDS011;19390;51.460;5.710;2023-02-01T16:43:49;24.88;;;4.13;;
33022;SDS011;19390;51.460;5.710;2023-02-01T16:46:18;28.88;;;3.92;;
33022;SDS011;19390;51.460;5.710;2023-02-01T16:48:50;23.38;;;4.28;;
33022;SDS011;19390;51.460;5.710;2023-02-01T16:51:18;20.20;;;3.85;;
33022;SDS011;19390;51.460;5.710;2023-02-01T16:53:44;23.52;;;4.20;;
33022;SDS011;19390;51.460;5.710;2023-02-01T16:56:18;21.88;;;4.20;;
33022;SDS011;19390;51.460;5.710;2023-02-01T16:58:48;27.33;;;3.95;;
33022;SDS011;19390;51.460;5.710;2023-02-01T17:01:15;27.58;;;5.00;;
33022;SDS011;19390;51.460;5.710;2023-02-01T17:03:43;24.17;;;4.00;;
33022;SDS011;19390;51.460;5.710;2023-02-01T17:06:10;21.65;;;3.72;;
33022;SDS011;19390;51.460;5.710;2023-02-01T17:08:40;19.02;;;3.67;;
33022;SDS011;19390;51.460;5.710;2023-02-01T17:11:07;17.67;;;3.33;;
33022;SDS011;19390;51.460;5.710;2023-02-01T17:13:35;20.17;;;3.78;;
33022;SDS011;19390;51.460;5.710;2023-02-01T17:16:03;17.95;;;3.30;;
33022;SDS011;19390;51.460;5.710;2023-02-01T17:18:31;18.48;;;3.90;;
33022;SDS011;19390;51.460;5.710;2023-02-01T17:21:00;25.80;;;3.80;;
33022;SDS011;19390;51.460;5.710;2023-02-01T17:23:27;17.83;;;3.60;;
33022;SDS011;19390;51.460;5.710;2023-02-01T17:25:54;21.63;;;4.40;;
33022;SDS011;19390;51.460;5.710;2023-02-01T17:28:20;27.25;;;4.82;;
33022;SDS011;19390;51.460;5.710;2023-02-01T17:30:45;20.00;;;4.63;;
33022;SDS011;19390;51.460;5.710;2023-02-01T17:33:16;22.48;;;4.70;;